createdAt,value
2022-09-16T00:01:53.369Z,77.00
2022-09-16T00:04:20.725Z,77.10
2022-09-16T00:06:47.389Z,77.10
2022-09-16T00:09:14.050Z,77.10
2022-09-16T00:11:40.691Z,77.00
2022-09-16T00:14:07.505Z,77.10
2022-09-16T00:16:34.186Z,77.30
2022-09-16T00:19:01.853Z,77.00
2022-09-16T00:21:29.633Z,77.00
2022-09-16T00:23:56.983Z,77.30
2022-09-16T00:26:23.776Z,77.30
2022-09-16T00:28:50.983Z,77.30
2022-09-16T00:31:18.326Z,77.30
2022-09-16T00:33:44.994Z,77.50
2022-09-16T00:36:17.659Z,77.50
2022-09-16T00:38:44.667Z,77.80
2022-09-16T00:41:19.471Z,77.90
2022-09-16T00:43:57.271Z,77.90
2022-09-16T00:46:36.016Z,78.00
2022-09-16T00:49:24.909Z,78.00
2022-09-16T00:51:56.706Z,78.30
2022-09-16T00:54:24.500Z,78.30
2022-09-16T00:56:54.063Z,78.20
2022-09-16T00:59:26.645Z,78.50
2022-09-16T01:01:58.675Z,78.60
2022-09-16T01:04:46.234Z,78.60
2022-09-16T01:07:13.647Z,78.50
2022-09-16T01:09:40.548Z,78.60
2022-09-16T01:12:07.201Z,78.20
2022-09-16T01:14:52.485Z,78.20
2022-09-16T01:17:28.073Z,78.60
2022-09-16T01:20:14.752Z,78.60
2022-09-16T01:22:59.528Z,78.60
2022-09-16T01:25:53.139Z,78.60
2022-09-16T01:29:11.398Z,78.60
2022-09-16T01:31:55.110Z,78.60
2022-09-16T01:34:43.967Z,78.60
2022-09-16T01:37:13.578Z,79.30
2022-09-16T01:40:02.028Z,78.50
2022-09-16T01:42:38.225Z,78.30
2022-09-16T01:45:25.397Z,78.50
2022-09-16T01:48:19.553Z,78.10
2022-09-16T01:50:57.892Z,78.10
2022-09-16T01:53:32.222Z,78.40
2022-09-16T01:56:16.685Z,78.40
2022-09-16T01:58:57.851Z,78.40
2022-09-16T02:01:46.188Z,78.40
2022-09-16T02:04:18.502Z,78.40
2022-09-16T02:06:46.478Z,78.60
2022-09-16T02:09:30.545Z,78.70
2022-09-16T02:12:05.437Z,78.50
2022-09-16T02:14:36.258Z,78.90
2022-09-16T02:17:07.714Z,78.70
2022-09-16T02:19:56.033Z,78.90
2022-09-16T02:22:32.440Z,78.80
2022-09-16T02:25:00.272Z,78.90
2022-09-16T02:27:29.010Z,79.90
2022-09-16T02:30:00.963Z,79.80
2022-09-16T02:32:31.441Z,78.70
2022-09-16T02:34:59.020Z,78.90
2022-09-16T02:37:31.094Z,78.90
2022-09-16T02:40:04.872Z,78.90
2022-09-16T02:42:33.316Z,78.90
2022-09-16T02:45:01.942Z,78.90
2022-09-16T02:47:44.702Z,79.60
2022-09-16T02:50:34.718Z,79.90
2022-09-16T02:53:32.809Z,79.90
2022-09-16T02:56:06.078Z,80.20
2022-09-16T02:58:32.988Z,80.10
2022-09-16T03:01:00.542Z,80.10
2022-09-16T03:03:27.444Z,80.10
2022-09-16T03:06:06.103Z,79.90
2022-09-16T03:08:34.299Z,79.60
2022-09-16T03:11:16.282Z,79.50
2022-09-16T03:13:55.006Z,79.40
2022-09-16T03:16:35.015Z,79.60
2022-09-16T03:19:07.233Z,79.50
2022-09-16T03:22:09.972Z,79.50
2022-09-16T03:24:57.821Z,79.50
2022-09-16T03:27:32.265Z,79.40
2022-09-16T03:30:05.934Z,79.50
2022-09-16T03:32:52.950Z,79.80
2022-09-16T03:35:24.060Z,80.10
2022-09-16T03:37:53.389Z,81.00
2022-09-16T03:40:20.821Z,80.20
2022-09-16T03:42:47.814Z,80.20
2022-09-16T03:45:20.045Z,80.00
2022-09-16T03:47:49.477Z,79.80
2022-09-16T03:50:17.613Z,79.40
2022-09-16T03:52:44.374Z,79.50
2022-09-16T03:55:11.417Z,79.60
2022-09-16T03:57:38.606Z,79.50
2022-09-16T04:00:07.424Z,79.40
2022-09-16T04:02:34.231Z,79.40
2022-09-16T04:05:01.003Z,79.30
2022-09-16T04:07:27.650Z,79.30
2022-09-16T04:09:54.278Z,79.40
2022-09-16T04:12:20.884Z,79.40
2022-09-16T04:14:47.520Z,79.20
2022-09-16T04:17:14.149Z,79.40
2022-09-16T04:19:40.768Z,79.20
2022-09-16T04:22:07.544Z,79.20
2022-09-16T04:24:34.172Z,79.30
2022-09-16T04:27:00.804Z,79.20
2022-09-16T04:29:27.771Z,79.30
2022-09-16T04:31:55.141Z,79.30
2022-09-16T04:34:21.867Z,79.20
2022-09-16T04:36:48.601Z,79.30
2022-09-16T04:39:15.380Z,79.30
2022-09-16T04:41:42.060Z,79.40
2022-09-16T04:44:10.797Z,79.40
2022-09-16T04:46:37.485Z,79.10
2022-09-16T04:49:04.222Z,79.20
2022-09-16T04:51:32.193Z,79.20
2022-09-16T04:53:59.613Z,79.30
2022-09-16T04:56:29.020Z,79.00
2022-09-16T04:58:59.524Z,79.30
2022-09-16T05:01:30.662Z,79.40
2022-09-16T05:04:00.410Z,79.50
2022-09-16T05:06:29.692Z,79.40
2022-09-16T05:08:56.911Z,79.50
2022-09-16T05:11:26.390Z,79.80
2022-09-16T05:13:53.181Z,79.80
2022-09-16T05:16:22.647Z,79.70
2022-09-16T05:18:51.101Z,80.20
2022-09-16T05:21:21.188Z,80.20
2022-09-16T05:23:48.262Z,80.00
2022-09-16T05:26:20.334Z,80.10
2022-09-16T05:28:47.601Z,80.00
2022-09-16T05:31:17.062Z,79.90
2022-09-16T05:33:46.882Z,80.10
2022-09-16T05:36:18.286Z,80.30
2022-09-16T05:39:04.721Z,80.50
2022-09-16T05:41:32.292Z,80.50
2022-09-16T05:44:00.614Z,80.20
2022-09-16T05:46:28.374Z,80.20
2022-09-16T05:48:56.031Z,80.10
2022-09-16T05:51:24.024Z,80.10
2022-09-16T05:53:52.063Z,80.10
2022-09-16T05:56:21.875Z,80.00
2022-09-16T05:58:48.751Z,80.20
2022-09-16T06:01:18.209Z,80.30
2022-09-16T06:03:46.627Z,80.10
2022-09-16T06:06:31.111Z,80.10
2022-09-16T06:09:00.390Z,79.90
2022-09-16T06:11:28.366Z,79.90
2022-09-16T06:14:00.120Z,80.10
2022-09-16T06:16:27.826Z,80.00
2022-09-16T06:18:55.656Z,80.10
2022-09-16T06:21:23.176Z,80.30
2022-09-16T06:23:50.125Z,80.50
2022-09-16T06:26:20.269Z,80.50
2022-09-16T06:28:47.574Z,80.40
2022-09-16T06:31:25.540Z,80.40
2022-09-16T06:33:53.376Z,80.00
2022-09-16T06:36:34.209Z,80.20
2022-09-16T06:39:01.026Z,80.40
2022-09-16T06:41:27.692Z,80.50
2022-09-16T06:43:55.523Z,80.60
2022-09-16T06:46:24.369Z,81.00
2022-09-16T06:48:53.392Z,80.90
2022-09-16T06:51:23.076Z,80.60
2022-09-16T06:53:51.089Z,80.40
2022-09-16T06:56:20.611Z,80.30
2022-09-16T06:58:49.725Z,80.40
2022-09-16T07:01:18.917Z,80.30
2022-09-16T07:03:47.635Z,80.40
2022-09-16T07:06:15.886Z,80.20
2022-09-16T07:08:43.540Z,80.10
2022-09-16T07:11:19.451Z,79.90
2022-09-16T07:13:47.417Z,79.70
2022-09-16T07:16:16.799Z,79.80
2022-09-16T07:18:43.977Z,80.20
2022-09-16T07:21:19.263Z,80.40
2022-09-16T07:23:46.953Z,80.30
2022-09-16T07:26:15.020Z,80.20
2022-09-16T07:28:43.173Z,80.40
2022-09-16T07:31:12.704Z,80.50
2022-09-16T07:33:41.821Z,79.80
2022-09-16T07:36:10.573Z,79.80
2022-09-16T07:38:37.638Z,79.60
2022-09-16T07:41:13.756Z,79.50
2022-09-16T07:43:41.549Z,79.10
2022-09-16T07:46:10.585Z,78.70
2022-09-16T07:48:38.060Z,78.50
2022-09-16T07:51:10.612Z,79.00
2022-09-16T07:53:37.726Z,78.70
2022-09-16T07:56:05.773Z,78.50
2022-09-16T07:58:32.630Z,77.60
2022-09-16T08:03:47.427Z,78.10
2022-09-16T08:06:22.769Z,77.50
2022-09-16T08:08:53.073Z,77.00
2022-09-16T08:11:20.362Z,76.40
2022-09-16T08:13:47.675Z,76.60
2022-09-16T08:16:17.215Z,76.50
2022-09-16T08:18:44.838Z,76.70
2022-09-16T08:21:17.470Z,76.80
2022-09-16T08:23:44.806Z,76.20
2022-09-16T08:26:13.621Z,76.50
2022-09-16T08:28:57.571Z,76.60
2022-09-16T08:31:28.542Z,77.20
2022-09-16T08:33:55.237Z,77.70
2022-09-16T08:36:23.935Z,77.30
2022-09-16T08:38:54.132Z,77.60
2022-09-16T08:41:48.613Z,76.70
2022-09-16T08:44:39.836Z,77.20
2022-09-16T08:47:42.614Z,76.70
2022-09-16T08:50:24.641Z,73.90
2022-09-16T08:52:52.675Z,74.20
2022-09-16T08:55:31.317Z,75.20
2022-09-16T08:58:25.466Z,75.10
2022-09-16T09:00:56.933Z,74.80
2022-09-16T09:03:40.501Z,74.20
2022-09-16T09:06:31.290Z,73.60
2022-09-16T09:09:05.503Z,70.40
2022-09-16T09:11:54.715Z,71.40
2022-09-16T09:14:29.855Z,71.20
2022-09-16T09:17:23.761Z,71.90
2022-09-16T09:20:14.700Z,72.30
2022-09-16T09:23:15.040Z,72.80
2022-09-16T09:25:46.752Z,73.30
2022-09-16T09:28:35.823Z,74.40
2022-09-16T09:31:11.057Z,75.30
2022-09-16T09:33:47.255Z,74.40
2022-09-16T09:36:32.987Z,74.00
2022-09-16T09:39:09.724Z,74.40
2022-09-16T09:42:16.300Z,72.90
2022-09-16T09:44:52.735Z,71.80
2022-09-16T09:47:27.669Z,72.30
2022-09-16T09:49:58.952Z,71.60
2022-09-16T09:52:38.490Z,69.00
2022-09-16T09:55:35.031Z,71.10
2022-09-16T09:58:28.897Z,70.70
2022-09-16T10:00:58.527Z,70.40
2022-09-16T10:03:26.834Z,69.60
2022-09-16T10:05:53.538Z,70.90
2022-09-16T10:08:50.427Z,70.70
2022-09-16T10:11:21.038Z,70.90
2022-09-16T10:13:57.833Z,70.70
2022-09-16T10:16:32.578Z,70.40
2022-09-16T10:19:05.890Z,70.30
2022-09-16T10:21:49.485Z,70.60
2022-09-16T10:24:31.339Z,70.70
2022-09-16T10:26:59.746Z,71.30
2022-09-16T10:29:26.462Z,71.80
2022-09-16T10:31:53.964Z,72.30
2022-09-16T10:34:34.096Z,72.50
2022-09-16T10:37:12.561Z,72.60
2022-09-16T10:39:42.871Z,72.80
2022-09-16T10:42:35.841Z,73.20
2022-09-16T10:45:14.389Z,73.60
2022-09-16T10:47:41.283Z,73.00
2022-09-16T10:50:15.805Z,72.80
2022-09-16T10:52:45.356Z,73.50
2022-09-16T10:55:23.917Z,74.80
2022-09-16T10:57:51.401Z,74.20
2022-09-16T11:00:29.616Z,73.90
2022-09-16T11:03:30.018Z,72.20
2022-09-16T11:06:14.760Z,72.60
2022-09-16T11:09:09.881Z,72.90
2022-09-16T11:11:56.014Z,73.20
2022-09-16T11:14:41.281Z,72.90
2022-09-16T11:17:42.281Z,72.10
2022-09-16T11:20:21.053Z,71.60
2022-09-16T11:22:54.840Z,71.20
2022-09-16T11:26:04.008Z,71.50
2022-09-16T11:28:51.922Z,71.50
2022-09-16T11:31:21.557Z,71.80
2022-09-16T11:34:10.535Z,72.30
2022-09-16T11:36:40.238Z,72.50
2022-09-16T11:39:34.784Z,72.90
2022-09-16T11:42:13.631Z,72.80
2022-09-16T11:44:49.470Z,72.80
2022-09-16T11:47:27.479Z,73.20
2022-09-16T11:50:22.716Z,73.40
2022-09-16T11:53:08.591Z,73.70
2022-09-16T11:55:57.851Z,74.20
2022-09-16T11:58:36.982Z,74.20
2022-09-16T12:01:33.731Z,73.80
2022-09-16T12:04:13.217Z,72.90
2022-09-16T12:07:01.993Z,72.90
2022-09-16T12:09:39.549Z,71.00
2022-09-16T12:12:14.560Z,70.30
2022-09-16T12:14:46.405Z,70.40
2022-09-16T12:17:19.489Z,71.80
2022-09-16T12:20:25.011Z,72.10
2022-09-16T12:22:59.001Z,72.00
2022-09-16T12:25:38.161Z,71.70
2022-09-16T12:28:20.244Z,72.10
2022-09-16T12:30:53.306Z,70.40
2022-09-16T12:33:27.904Z,70.30
2022-09-16T12:35:59.664Z,69.00
2022-09-16T12:38:26.541Z,67.10
2022-09-16T12:41:09.017Z,67.60
2022-09-16T12:43:44.558Z,68.10
2022-09-16T12:46:41.931Z,68.40
2022-09-16T12:49:36.396Z,69.90
2022-09-16T12:52:25.406Z,70.00
2022-09-16T12:55:26.373Z,69.70
2022-09-16T12:58:34.039Z,69.20
2022-09-16T13:01:18.381Z,69.60
2022-09-16T13:03:49.222Z,70.20
2022-09-16T13:06:29.543Z,70.40
2022-09-16T13:08:58.089Z,69.20
2022-09-16T13:12:16.436Z,69.90
2022-09-16T13:14:25.406Z,69.70
2022-09-16T13:16:54.905Z,68.50
2022-09-16T13:19:48.054Z,68.50
2022-09-16T13:22:30.735Z,67.00
2022-09-16T13:25:19.223Z,66.70
2022-09-16T13:28:04.429Z,66.40
2022-09-16T13:30:31.102Z,66.20
2022-09-16T13:33:02.229Z,66.00
2022-09-16T13:35:32.281Z,65.20
2022-09-16T13:38:00.491Z,65.60
2022-09-16T13:40:29.421Z,65.70
2022-09-16T13:43:34.107Z,65.20
2022-09-16T13:46:08.201Z,64.70
2022-09-16T13:48:57.482Z,64.70
2022-09-16T13:51:24.327Z,63.70
2022-09-16T13:53:52.119Z,64.20
2022-09-16T13:56:18.677Z,64.50
2022-09-16T13:59:23.907Z,64.60
2022-09-16T14:02:13.972Z,63.80
2022-09-16T14:05:02.389Z,64.20
2022-09-16T14:07:58.047Z,64.90
2022-09-16T14:10:51.334Z,63.20
2022-09-16T14:13:20.299Z,62.80
2022-09-16T14:15:50.746Z,63.50
2022-09-16T14:18:25.287Z,63.30
2022-09-16T14:21:03.414Z,62.60
2022-09-16T14:23:32.520Z,62.10
2022-09-16T14:26:16.744Z,62.70
2022-09-16T14:28:43.723Z,63.40
2022-09-16T14:31:15.768Z,63.70
2022-09-16T14:33:56.981Z,64.30
2022-09-16T14:36:26.249Z,64.20
2022-09-16T14:39:02.398Z,64.10
2022-09-16T14:41:39.582Z,63.90
2022-09-16T14:44:20.649Z,64.20
2022-09-16T14:47:04.557Z,64.70
2022-09-16T14:49:37.806Z,64.90
2022-09-16T14:52:04.446Z,64.90
2022-09-16T14:54:31.847Z,64.50
2022-09-16T14:56:59.814Z,64.50
2022-09-16T14:59:41.931Z,64.10
2022-09-16T15:02:17.515Z,64.20
2022-09-16T15:04:50.341Z,63.80
2022-09-16T15:07:24.805Z,62.60
2022-09-16T15:10:02.182Z,61.50
2022-09-16T15:12:49.521Z,60.90
2022-09-16T15:15:35.261Z,60.80
2022-09-16T15:18:05.257Z,59.90
2022-09-16T15:20:40.972Z,60.50
2022-09-16T15:23:20.834Z,59.30
2022-09-16T15:26:10.894Z,59.90
2022-09-16T15:28:37.562Z,58.60
2022-09-16T15:31:04.690Z,58.40
2022-09-16T15:33:37.173Z,58.40
2022-09-16T15:36:04.590Z,58.30
2022-09-16T15:38:31.312Z,58.20
2022-09-16T15:41:13.201Z,58.50
2022-09-16T15:43:44.060Z,58.30
2022-09-16T15:46:20.773Z,59.00
2022-09-16T15:49:01.782Z,58.70
2022-09-16T15:51:43.858Z,59.00
2022-09-16T15:54:14.267Z,60.10
2022-09-16T15:56:58.872Z,60.10
2022-09-16T15:59:28.960Z,59.20
2022-09-16T16:01:58.792Z,59.30
2022-09-16T16:04:33.182Z,59.00
2022-09-16T16:07:02.204Z,59.20
2022-09-16T16:09:30.362Z,59.00
2022-09-16T16:12:13.427Z,59.40
2022-09-16T16:14:41.109Z,59.70
2022-09-16T16:17:19.980Z,59.90
2022-09-16T16:19:49.336Z,59.80
2022-09-16T16:22:16.933Z,59.70
2022-09-16T16:24:43.895Z,59.90
2022-09-16T16:27:10.579Z,60.60
2022-09-16T16:29:38.797Z,59.70
2022-09-16T16:32:09.288Z,59.50
2022-09-16T16:34:38.450Z,59.30
2022-09-16T16:37:07.318Z,59.00
2022-09-16T16:39:35.032Z,59.40
2022-09-16T16:42:05.413Z,59.40
2022-09-16T16:44:32.893Z,59.40
2022-09-16T16:47:00.105Z,60.50
2022-09-16T16:49:26.945Z,61.10
2022-09-16T16:52:00.611Z,61.20
2022-09-16T16:54:28.544Z,61.40
2022-09-16T16:56:55.902Z,62.00
2022-09-16T16:59:23.032Z,62.60
2022-09-16T17:01:53.709Z,62.80
2022-09-16T17:04:20.958Z,63.40
2022-09-16T17:06:51.847Z,63.50
2022-09-16T17:09:29.401Z,64.00
2022-09-16T17:11:58.112Z,64.00
2022-09-16T17:14:27.191Z,64.50
2022-09-16T17:16:54.908Z,64.80
2022-09-16T17:19:23.430Z,65.20
2022-09-16T17:21:50.125Z,65.60
2022-09-16T17:24:17.690Z,65.90
2022-09-16T17:26:45.262Z,66.30
2022-09-16T17:29:15.943Z,66.50
2022-09-16T17:31:43.287Z,66.60
2022-09-16T17:34:13.181Z,67.00
2022-09-16T17:36:43.248Z,66.80
2022-09-16T17:39:20.780Z,67.00
2022-09-16T17:41:48.849Z,67.20
2022-09-16T17:44:16.531Z,67.60
2022-09-16T17:46:43.887Z,67.80
2022-09-16T17:49:19.024Z,67.80
2022-09-16T17:51:45.904Z,68.20
2022-09-16T17:54:13.290Z,68.50
2022-09-16T17:56:42.466Z,68.20
2022-09-16T17:59:10.115Z,67.70
2022-09-16T18:01:36.741Z,67.60
2022-09-16T18:04:03.686Z,67.60
2022-09-16T18:06:40.317Z,67.50
2022-09-16T18:09:07.426Z,67.50
2022-09-16T18:11:35.017Z,67.30
2022-09-16T18:14:03.657Z,66.70
2022-09-16T18:16:31.089Z,67.10
2022-09-16T18:19:00.845Z,67.30
2022-09-16T18:21:28.497Z,67.20
2022-09-16T18:23:57.649Z,66.80
2022-09-16T18:26:25.188Z,66.80
2022-09-16T18:31:42.614Z,66.80
2022-09-16T18:34:09.807Z,66.80
2022-09-16T18:36:37.648Z,67.00
2022-09-16T18:39:05.592Z,67.10
2022-09-16T18:41:36.320Z,66.90
2022-09-16T18:44:07.871Z,66.80
2022-09-16T18:46:36.911Z,66.50
2022-09-16T18:49:04.769Z,66.60
2022-09-16T18:51:37.064Z,66.60
2022-09-16T18:54:06.434Z,67.50
2022-09-16T18:56:34.671Z,66.80
2022-09-16T18:59:24.247Z,66.90
2022-09-16T19:01:58.583Z,66.90
2022-09-16T19:04:28.087Z,67.20
2022-09-16T19:06:56.997Z,67.30
2022-09-16T19:09:24.655Z,67.30
2022-09-16T19:11:53.038Z,67.30
2022-09-16T19:14:22.340Z,67.40
2022-09-16T19:16:49.089Z,67.60
2022-09-16T19:19:16.052Z,67.60
2022-09-16T19:21:43.617Z,67.90
2022-09-16T19:24:16.925Z,68.00
2022-09-16T19:26:44.788Z,68.10
2022-09-16T19:29:13.298Z,68.20
2022-09-16T19:31:41.977Z,68.30
2022-09-16T19:34:09.543Z,68.50
2022-09-16T19:36:37.478Z,68.70
2022-09-16T19:39:06.001Z,68.80
2022-09-16T19:41:34.818Z,69.30
2022-09-16T19:44:05.262Z,69.30
2022-09-16T19:46:35.527Z,69.40
2022-09-16T19:49:02.661Z,69.60
2022-09-16T19:51:29.366Z,69.50
2022-09-16T19:53:58.222Z,69.70
2022-09-16T19:56:27.485Z,70.10
2022-09-16T19:58:54.791Z,70.50
2022-09-16T20:01:24.262Z,70.30
2022-09-16T20:03:51.402Z,70.50
2022-09-16T20:06:27.434Z,71.30
2022-09-16T20:08:59.611Z,71.10
2022-09-16T20:11:28.970Z,71.10
2022-09-16T20:14:07.627Z,71.40
2022-09-16T20:16:37.516Z,71.80
2022-09-16T20:19:11.394Z,71.80
2022-09-16T20:21:38.745Z,72.10
2022-09-16T20:24:07.072Z,72.00
2022-09-16T20:26:35.413Z,72.40
2022-09-16T20:29:03.411Z,72.60
2022-09-16T20:31:32.796Z,72.50
2022-09-16T20:34:00.103Z,72.70
2022-09-16T20:36:30.425Z,72.90
2022-09-16T20:38:59.555Z,73.10
2022-09-16T20:41:28.901Z,73.00
2022-09-16T20:43:56.007Z,73.00
2022-09-16T20:46:25.285Z,73.00
2022-09-16T20:48:54.478Z,73.20
2022-09-16T20:51:26.726Z,73.40
2022-09-16T20:54:08.101Z,73.40
2022-09-16T20:56:38.541Z,73.40
2022-09-16T20:59:07.670Z,73.50
2022-09-16T21:01:35.648Z,73.60
2022-09-16T21:04:08.060Z,73.50
2022-09-16T21:06:36.358Z,73.70
2022-09-16T21:09:06.234Z,73.80
2022-09-16T21:11:33.143Z,74.00
2022-09-16T21:14:06.415Z,74.00
2022-09-16T21:16:34.943Z,74.00
2022-09-16T21:19:04.028Z,74.10
2022-09-16T21:21:31.979Z,74.10
2022-09-16T21:24:01.305Z,74.20
2022-09-16T21:26:30.983Z,74.20
2022-09-16T21:29:03.115Z,74.10
2022-09-16T21:31:33.490Z,74.20
2022-09-16T21:34:03.122Z,74.30
2022-09-16T21:36:30.573Z,74.30
2022-09-16T21:38:58.753Z,74.40
2022-09-16T21:41:26.307Z,74.50
2022-09-16T21:43:55.677Z,74.50
2022-09-16T21:46:31.726Z,74.50
2022-09-16T21:49:01.170Z,74.40
2022-09-16T21:51:35.284Z,74.50
2022-09-16T21:54:03.732Z,74.50
2022-09-16T21:56:31.033Z,74.60
2022-09-16T21:58:58.365Z,74.50
2022-09-16T22:01:28.054Z,74.60
2022-09-16T22:04:05.919Z,74.60
2022-09-16T22:06:33.300Z,74.50
2022-09-16T22:09:02.541Z,74.50
2022-09-16T22:11:31.616Z,74.50
2022-09-16T22:14:02.105Z,74.60
2022-09-16T22:16:32.928Z,74.50
2022-09-16T22:19:02.106Z,74.50
2022-09-16T22:21:33.529Z,74.60
2022-09-16T22:24:01.019Z,74.50
2022-09-16T22:26:29.124Z,74.60
2022-09-16T22:28:56.350Z,74.70
2022-09-16T22:31:25.478Z,74.70
2022-09-16T22:33:54.009Z,74.70
2022-09-16T22:36:25.629Z,74.80
2022-09-16T22:38:57.832Z,75.00
2022-09-16T22:41:25.390Z,75.00
2022-09-16T22:43:53.666Z,75.10
2022-09-16T22:46:21.455Z,75.10
2022-09-16T22:48:49.193Z,75.10
2022-09-16T22:51:17.690Z,75.20
2022-09-16T22:53:45.245Z,75.20
2022-09-16T22:56:18.011Z,75.20
2022-09-16T22:58:45.607Z,75.20
2022-09-16T23:01:15.256Z,75.10
2022-09-16T23:03:43.000Z,75.00
2022-09-16T23:06:15.071Z,74.90
2022-09-16T23:08:45.244Z,74.90
2022-09-16T23:11:16.932Z,74.60
2022-09-16T23:13:45.317Z,74.50
2022-09-16T23:16:15.764Z,74.30
2022-09-16T23:18:43.970Z,74.10
2022-09-16T23:21:13.837Z,74.10
2022-09-16T23:23:42.973Z,74.20
2022-09-16T23:26:16.156Z,73.90
2022-09-16T23:28:43.142Z,73.90
2022-09-16T23:31:12.882Z,74.00
2022-09-16T23:33:40.333Z,74.20
2022-09-16T23:36:08.584Z,73.90
2022-09-16T23:38:37.475Z,73.90
2022-09-16T23:41:05.673Z,73.80
2022-09-16T23:43:32.652Z,73.80
2022-09-16T23:46:01.851Z,73.60
2022-09-16T23:48:29.350Z,73.60
2022-09-16T23:50:56.305Z,73.60
2022-09-16T23:53:22.991Z,73.70
2022-09-16T23:55:50.109Z,73.70
2022-09-16T23:58:17.150Z,73.80
